createdAt,value
2022-12-22T00:01:35.319Z,49.00
2022-12-22T00:04:59.231Z,53.08
2022-12-22T00:08:21.169Z,48.35
2022-12-22T00:11:42.635Z,47.28
2022-12-22T00:15:04.954Z,54.70
2022-12-22T00:18:33.408Z,60.50
2022-12-22T00:21:54.732Z,55.00
2022-12-22T00:25:15.581Z,51.75
2022-12-22T00:28:36.397Z,52.17
2022-12-22T00:31:59.292Z,52.70
2022-12-22T00:35:20.496Z,55.35
2022-12-22T00:38:41.447Z,62.75
2022-12-22T00:42:02.198Z,52.58
2022-12-22T00:45:23.618Z,57.88
2022-12-22T00:48:45.930Z,57.95
2022-12-22T00:52:06.702Z,51.72
2022-12-22T00:55:37.042Z,55.47
2022-12-22T00:58:58.274Z,52.70
2022-12-22T01:02:19.177Z,53.83
2022-12-22T01:05:40.800Z,50.90
2022-12-22T01:09:02.133Z,50.45
2022-12-22T01:12:34.064Z,55.20
2022-12-22T01:15:54.972Z,57.22
2022-12-22T01:19:16.302Z,60.15
2022-12-22T01:22:40.124Z,57.67
2022-12-22T01:26:00.982Z,58.65
2022-12-22T01:29:22.381Z,52.23
2022-12-22T01:32:43.208Z,56.10
2022-12-22T01:36:04.136Z,51.95
2022-12-22T01:39:24.915Z,51.47
2022-12-22T01:42:46.891Z,49.97
2022-12-22T01:46:07.687Z,50.55
2022-12-22T01:49:56.915Z,49.25
2022-12-22T01:53:20.071Z,52.25
2022-12-22T01:56:41.673Z,49.15
2022-12-22T02:00:03.157Z,54.00
2022-12-22T02:03:40.992Z,49.10
2022-12-22T02:07:04.558Z,58.05
2022-12-22T02:10:32.125Z,52.20
2022-12-22T02:14:30.730Z,50.33
2022-12-22T02:18:20.470Z,54.35
2022-12-22T02:21:43.754Z,49.20
2022-12-22T02:25:10.983Z,55.42
2022-12-22T02:28:35.654Z,51.97
2022-12-22T02:31:59.071Z,50.33
2022-12-22T02:35:19.832Z,48.25
2022-12-22T02:38:57.504Z,46.70
2022-12-22T02:42:35.195Z,49.45
2022-12-22T02:46:08.592Z,45.25
2022-12-22T02:49:44.236Z,44.80
2022-12-22T02:53:07.036Z,45.10
2022-12-22T02:56:29.673Z,50.30
2022-12-22T02:59:50.865Z,40.55
2022-12-22T03:03:11.874Z,46.30
2022-12-22T03:06:33.413Z,45.97
2022-12-22T03:09:54.247Z,51.53
2022-12-22T03:13:18.679Z,47.87
2022-12-22T03:16:39.575Z,49.25
2022-12-22T03:20:00.528Z,43.03
2022-12-22T03:23:24.101Z,49.03
2022-12-22T03:26:27.633Z,47.83
2022-12-22T03:29:30.136Z,52.90
2022-12-22T03:32:32.833Z,51.53
2022-12-22T03:35:35.281Z,48.33
2022-12-22T03:38:37.900Z,46.15
2022-12-22T03:41:58.773Z,44.50
2022-12-22T03:45:19.641Z,45.83
2022-12-22T03:48:22.379Z,51.00
2022-12-22T03:51:24.992Z,52.97
2022-12-22T03:54:27.609Z,52.50
2022-12-22T03:57:30.088Z,54.15
2022-12-22T04:00:32.994Z,56.35
2022-12-22T04:03:35.451Z,61.45
2022-12-22T04:06:38.031Z,56.53
2022-12-22T04:10:00.459Z,58.28
2022-12-22T04:13:03.048Z,56.38
2022-12-22T04:16:05.831Z,61.97
2022-12-22T04:19:09.937Z,55.47
2022-12-22T04:22:12.502Z,60.03
2022-12-22T04:25:15.725Z,56.80
2022-12-22T04:28:18.296Z,60.58
2022-12-22T04:31:21.464Z,66.53
2022-12-22T04:34:24.027Z,55.05
2022-12-22T04:37:26.586Z,62.72
2022-12-22T04:40:30.961Z,55.47
2022-12-22T04:43:33.946Z,56.15
2022-12-22T04:46:36.429Z,59.13
2022-12-22T04:49:39.828Z,59.17
2022-12-22T04:52:42.546Z,54.28
2022-12-22T04:55:49.454Z,55.23
2022-12-22T04:58:51.953Z,66.53
2022-12-22T05:01:54.521Z,65.65
2022-12-22T05:04:57.272Z,72.38
2022-12-22T05:07:59.740Z,61.80
2022-12-22T05:11:03.075Z,63.45
2022-12-22T05:14:07.535Z,61.28
2022-12-22T05:17:10.131Z,65.30
2022-12-22T05:20:13.012Z,64.50
2022-12-22T05:23:15.531Z,64.63
2022-12-22T05:26:19.212Z,62.03
2022-12-22T05:29:21.899Z,64.82
2022-12-22T05:32:24.364Z,65.55
2022-12-22T05:35:26.915Z,64.32
2022-12-22T05:38:29.529Z,75.55
2022-12-22T05:41:32.012Z,62.75
2022-12-22T05:44:34.466Z,51.33
2022-12-22T05:47:36.990Z,65.67
2022-12-22T05:50:39.785Z,59.70
2022-12-22T05:53:43.281Z,67.63
2022-12-22T05:56:45.928Z,54.03
2022-12-22T05:59:48.615Z,60.17
2022-12-22T06:02:51.214Z,61.78
2022-12-22T06:05:54.631Z,62.28
2022-12-22T06:08:57.150Z,64.97
2022-12-22T06:11:59.727Z,66.22
2022-12-22T06:15:02.190Z,59.47
2022-12-22T06:18:04.909Z,64.37
2022-12-22T06:21:07.589Z,59.42
2022-12-22T06:24:10.177Z,63.50
2022-12-22T06:27:12.979Z,76.73
2022-12-22T06:30:16.454Z,66.10
2022-12-22T06:33:18.976Z,64.18
2022-12-22T06:36:21.702Z,63.35
2022-12-22T06:39:24.377Z,66.53
2022-12-22T06:42:45.441Z,64.95
2022-12-22T06:45:47.924Z,68.88
2022-12-22T06:48:50.389Z,69.87
2022-12-22T06:51:52.924Z,66.20
2022-12-22T06:54:55.380Z,64.22
2022-12-22T06:57:58.016Z,63.47
2022-12-22T07:01:01.200Z,65.50
2022-12-22T07:04:04.005Z,68.10
2022-12-22T07:07:06.826Z,67.72
2022-12-22T07:10:09.719Z,59.85
2022-12-22T07:13:21.003Z,78.82
2022-12-22T07:16:23.594Z,70.53
2022-12-22T07:19:26.126Z,67.37
2022-12-22T07:22:30.694Z,63.65
2022-12-22T07:25:33.750Z,62.75
2022-12-22T07:28:38.599Z,67.77
2022-12-22T07:31:41.163Z,61.60
2022-12-22T07:34:43.789Z,70.13
2022-12-22T07:37:48.739Z,70.13
2022-12-22T07:41:04.523Z,68.37
2022-12-22T07:44:08.522Z,81.45
2022-12-22T07:47:10.895Z,78.60
2022-12-22T07:50:25.316Z,73.37
2022-12-22T07:53:27.773Z,61.67
2022-12-22T07:56:30.178Z,61.13
2022-12-22T07:59:32.706Z,69.53
2022-12-22T08:02:39.134Z,62.78
2022-12-22T08:05:42.256Z,69.22
2022-12-22T08:08:45.800Z,69.30
2022-12-22T08:11:49.280Z,68.23
2022-12-22T08:14:53.124Z,59.47
2022-12-22T08:17:56.682Z,59.40
2022-12-22T08:21:00.847Z,67.17
2022-12-22T08:24:03.382Z,67.00
2022-12-22T08:27:12.229Z,75.85
2022-12-22T08:30:15.073Z,75.70
2022-12-22T08:33:19.321Z,63.53
2022-12-22T08:36:22.150Z,59.10
2022-12-22T08:39:27.744Z,62.05
2022-12-22T08:42:30.796Z,63.10
2022-12-22T08:45:33.429Z,52.07
2022-12-22T08:48:35.914Z,63.40
2022-12-22T08:51:38.639Z,63.72
2022-12-22T08:54:41.631Z,57.30
2022-12-22T08:57:44.234Z,59.20
2022-12-22T09:00:46.961Z,62.65
2022-12-22T09:03:53.984Z,53.30
2022-12-22T09:06:56.448Z,58.20
2022-12-22T09:09:58.973Z,64.35
2022-12-22T09:13:01.483Z,57.95
2022-12-22T09:16:09.531Z,53.13
2022-12-22T09:19:12.022Z,62.38
2022-12-22T09:22:14.715Z,63.67
2022-12-22T09:25:18.289Z,65.72
2022-12-22T09:28:20.850Z,66.33
2022-12-22T09:31:25.685Z,65.05
2022-12-22T09:34:28.257Z,66.55
2022-12-22T09:37:30.725Z,64.25
2022-12-22T09:40:34.858Z,66.57
2022-12-22T09:43:37.623Z,67.90
2022-12-22T09:46:41.010Z,65.00
2022-12-22T09:49:43.597Z,63.47
2022-12-22T09:52:57.450Z,62.50
2022-12-22T09:55:59.949Z,68.20
2022-12-22T09:59:02.451Z,70.30
2022-12-22T10:02:19.958Z,62.30
2022-12-22T10:05:30.894Z,70.30
2022-12-22T10:08:36.561Z,64.18
2022-12-22T10:11:40.201Z,74.73
2022-12-22T10:14:45.847Z,68.88
2022-12-22T10:17:51.812Z,72.68
2022-12-22T10:21:12.179Z,70.82
2022-12-22T10:24:35.865Z,65.67
2022-12-22T10:27:42.932Z,77.25
2022-12-22T10:30:48.347Z,65.10
2022-12-22T10:33:54.352Z,79.50
2022-12-22T10:37:00.706Z,70.07
2022-12-22T10:40:21.167Z,68.22
2022-12-22T10:43:30.076Z,67.97
2022-12-22T10:46:55.525Z,70.97
2022-12-22T10:53:03.377Z,74.32
2022-12-22T10:56:08.293Z,65.68
2022-12-22T10:59:20.194Z,68.67
2022-12-22T11:02:30.410Z,65.07
2022-12-22T11:05:33.709Z,66.88
2022-12-22T11:08:36.774Z,60.25
2022-12-22T11:11:51.920Z,63.50
2022-12-22T11:15:27.533Z,66.47
2022-12-22T11:18:43.549Z,64.72
2022-12-22T11:21:52.040Z,58.23
2022-12-22T11:25:23.360Z,53.47
2022-12-22T11:29:05.600Z,61.67
2022-12-22T11:32:26.769Z,55.65
2022-12-22T11:35:29.318Z,60.72
2022-12-22T11:38:47.882Z,66.97
2022-12-22T11:41:59.336Z,60.80
2022-12-22T11:45:20.266Z,64.10
2022-12-22T11:48:44.738Z,64.13
2022-12-22T11:52:16.505Z,56.50
2022-12-22T11:55:31.471Z,64.75
2022-12-22T11:58:39.749Z,62.83
2022-12-22T12:02:00.307Z,62.83
2022-12-22T12:05:02.809Z,63.90
2022-12-22T12:08:34.953Z,58.28
2022-12-22T12:11:58.892Z,70.00
2022-12-22T12:15:27.913Z,66.05
2022-12-22T12:19:06.322Z,63.20
2022-12-22T12:22:14.361Z,69.78
2022-12-22T12:25:29.228Z,66.47
2022-12-22T12:28:49.545Z,63.47
2022-12-22T12:32:18.280Z,63.77
2022-12-22T12:35:57.792Z,66.05
2022-12-22T12:39:08.401Z,62.33
2022-12-22T12:42:28.702Z,67.45
2022-12-22T12:45:41.247Z,69.50
2022-12-22T12:48:43.764Z,76.25
2022-12-22T12:51:49.866Z,71.22
2022-12-22T12:54:53.306Z,68.47
2022-12-22T12:57:57.225Z,69.53
2022-12-22T13:00:59.833Z,64.32
2022-12-22T13:04:04.534Z,62.90
2022-12-22T13:07:07.809Z,71.73
2022-12-22T13:10:25.317Z,65.00
2022-12-22T13:13:27.739Z,66.80
2022-12-22T13:16:36.208Z,73.60
2022-12-22T13:19:38.822Z,71.47
2022-12-22T13:22:43.657Z,69.50
2022-12-22T13:25:54.020Z,70.70
2022-12-22T13:28:59.151Z,71.55
2022-12-22T13:32:15.646Z,66.97
2022-12-22T13:35:46.613Z,69.40
2022-12-22T13:39:00.843Z,74.30
2022-12-22T13:42:06.701Z,64.43
2022-12-22T13:45:35.267Z,61.73
2022-12-22T13:48:50.258Z,64.72
2022-12-22T13:51:52.869Z,74.80
2022-12-22T13:54:55.433Z,70.28
2022-12-22T13:58:06.686Z,71.33
2022-12-22T14:01:12.111Z,68.35
2022-12-22T14:04:15.111Z,66.18
2022-12-22T14:07:19.666Z,73.47
2022-12-22T14:10:32.837Z,74.88
2022-12-22T14:13:35.844Z,71.85
2022-12-22T14:16:47.147Z,70.15
2022-12-22T14:19:55.567Z,73.73
2022-12-22T14:23:07.419Z,81.53
2022-12-22T14:26:18.001Z,80.18
2022-12-22T14:29:26.663Z,75.43
2022-12-22T14:32:55.950Z,79.38
2022-12-22T14:36:14.459Z,72.72
2022-12-22T14:39:26.017Z,83.07
2022-12-22T14:42:29.837Z,84.77
2022-12-22T14:45:33.337Z,82.07
2022-12-22T14:48:45.563Z,74.05
2022-12-22T14:52:01.080Z,78.40
2022-12-22T14:55:06.698Z,78.40
2022-12-22T14:58:09.094Z,79.82
2022-12-22T15:01:29.645Z,83.90
2022-12-22T15:04:33.487Z,77.27
2022-12-22T15:08:05.448Z,78.22
2022-12-22T15:11:15.595Z,74.25
2022-12-22T15:14:22.078Z,78.23
2022-12-22T15:17:25.892Z,89.90
2022-12-22T15:20:38.564Z,81.05
2022-12-22T15:23:42.874Z,87.82
2022-12-22T15:26:46.604Z,87.22
2022-12-22T15:29:49.140Z,79.30
2022-12-22T15:32:51.682Z,85.65
2022-12-22T15:35:54.215Z,84.97
2022-12-22T15:38:56.735Z,88.57
2022-12-22T15:41:59.290Z,79.88
2022-12-22T15:45:01.753Z,83.90
2022-12-22T15:48:06.741Z,91.38
2022-12-22T15:51:20.274Z,76.53
2022-12-22T15:54:23.482Z,82.38
2022-12-22T15:57:27.346Z,83.17
2022-12-22T16:00:33.524Z,84.93
2022-12-22T16:03:36.138Z,87.22
2022-12-22T16:06:39.277Z,85.73
2022-12-22T16:09:45.066Z,84.53
2022-12-22T16:12:53.997Z,86.13
2022-12-22T16:15:58.286Z,73.83
2022-12-22T16:19:00.925Z,90.45
2022-12-22T16:22:03.676Z,84.47
2022-12-22T16:25:13.572Z,83.47
2022-12-22T16:28:24.487Z,78.90
2022-12-22T16:31:27.334Z,86.07
2022-12-22T16:34:30.041Z,89.03
2022-12-22T16:37:32.485Z,92.63
2022-12-22T16:40:43.462Z,91.25
2022-12-22T16:43:49.399Z,92.32
2022-12-22T16:46:52.117Z,82.25
2022-12-22T16:49:55.309Z,96.18
2022-12-22T16:53:00.420Z,98.78
2022-12-22T16:56:02.871Z,97.45
2022-12-22T16:59:05.381Z,100.13
2022-12-22T17:02:29.003Z,102.53
2022-12-22T17:05:44.395Z,101.80
2022-12-22T17:08:48.107Z,97.77
2022-12-22T17:11:51.183Z,102.65
2022-12-22T17:14:54.830Z,111.50
2022-12-22T17:17:57.260Z,97.03
2022-12-22T17:21:00.569Z,104.53
2022-12-22T17:24:04.389Z,104.35
2022-12-22T17:27:07.335Z,97.70
2022-12-22T17:30:18.477Z,90.77
2022-12-22T17:33:21.267Z,109.28
2022-12-22T17:36:33.407Z,102.90
2022-12-22T17:39:38.555Z,98.73
2022-12-22T17:42:41.413Z,108.93
2022-12-22T17:45:46.031Z,95.97
2022-12-22T17:48:49.254Z,112.90
2022-12-22T17:51:52.095Z,99.97
2022-12-22T17:54:54.630Z,99.30
2022-12-22T17:57:57.325Z,99.05
2022-12-22T18:00:59.842Z,110.67
2022-12-22T18:04:02.392Z,115.28
2022-12-22T18:07:04.860Z,108.20
2022-12-22T18:10:08.660Z,111.77
2022-12-22T18:13:19.583Z,108.28
2022-12-22T18:16:23.151Z,106.72
2022-12-22T18:19:26.066Z,105.15
2022-12-22T18:22:30.184Z,110.63
2022-12-22T18:25:32.982Z,100.00
2022-12-22T18:28:36.701Z,110.22
2022-12-22T18:31:39.351Z,109.50
2022-12-22T18:34:42.534Z,115.97
2022-12-22T18:37:45.337Z,109.70
2022-12-22T18:40:48.079Z,102.97
2022-12-22T18:43:50.977Z,108.03
2022-12-22T18:46:53.465Z,127.47
2022-12-22T18:50:02.848Z,89.75
2022-12-22T18:53:19.769Z,112.07
2022-12-22T18:56:22.497Z,113.65
2022-12-22T18:59:31.266Z,112.38
2022-12-22T19:02:34.030Z,115.27
2022-12-22T19:05:37.943Z,124.68
2022-12-22T19:08:45.830Z,117.10
2022-12-22T19:11:49.170Z,108.70
2022-12-22T19:14:55.280Z,117.53
2022-12-22T19:17:58.617Z,102.40
2022-12-22T19:21:02.916Z,101.15
2022-12-22T19:24:05.802Z,104.13
2022-12-22T19:27:20.209Z,109.75
2022-12-22T19:30:25.409Z,113.65
2022-12-22T19:33:42.201Z,100.00
2022-12-22T19:36:44.873Z,113.43
2022-12-22T19:39:47.568Z,119.60
2022-12-22T19:42:55.093Z,101.05
2022-12-22T19:45:57.770Z,98.47
2022-12-22T19:49:01.186Z,106.80
2022-12-22T19:52:04.028Z,104.97
2022-12-22T19:55:06.722Z,111.30
2022-12-22T19:58:35.868Z,95.88
2022-12-22T20:01:38.697Z,99.05
2022-12-22T20:04:41.371Z,97.50
2022-12-22T20:07:44.072Z,95.07
2022-12-22T20:10:49.552Z,113.40
2022-12-22T20:13:55.804Z,91.55
2022-12-22T20:16:58.422Z,100.03
2022-12-22T20:20:01.016Z,95.43
2022-12-22T20:23:11.279Z,97.63
2022-12-22T20:26:23.008Z,94.33
2022-12-22T20:29:26.679Z,91.07
2022-12-22T20:32:29.508Z,103.85
2022-12-22T20:35:32.366Z,101.00
2022-12-22T20:38:40.658Z,105.57
2022-12-22T20:41:47.040Z,100.25
2022-12-22T20:45:03.092Z,99.93
2022-12-22T20:48:07.045Z,93.43
2022-12-22T20:51:19.091Z,91.83
2022-12-22T20:54:22.035Z,90.97
2022-12-22T20:57:26.278Z,81.00
2022-12-22T21:00:29.435Z,95.33
2022-12-22T21:03:32.021Z,91.50
2022-12-22T21:06:38.528Z,86.68
2022-12-22T21:09:41.657Z,87.57
2022-12-22T21:12:44.345Z,94.00
2022-12-22T21:15:50.181Z,83.50
2022-12-22T21:18:54.319Z,84.32
2022-12-22T21:21:57.105Z,93.13
2022-12-22T21:24:59.643Z,94.40
2022-12-22T21:28:02.681Z,98.72
2022-12-22T21:31:05.918Z,92.40
2022-12-22T21:34:12.958Z,89.22
2022-12-22T21:37:18.754Z,94.63
2022-12-22T21:40:29.538Z,101.15
2022-12-22T21:43:32.049Z,95.23
2022-12-22T21:46:34.807Z,106.53
2022-12-22T21:49:37.319Z,93.28
2022-12-22T21:52:39.782Z,99.03
2022-12-22T21:55:42.786Z,101.93
2022-12-22T21:58:45.527Z,106.65
2022-12-22T22:01:48.144Z,106.00
2022-12-22T22:04:54.843Z,103.07
2022-12-22T22:07:59.019Z,96.22
2022-12-22T22:11:01.552Z,104.20
2022-12-22T22:14:04.048Z,105.00
2022-12-22T22:17:06.510Z,108.78
2022-12-22T22:20:13.608Z,106.78
2022-12-22T22:23:18.577Z,116.05
2022-12-22T22:26:21.011Z,108.47
2022-12-22T22:29:23.803Z,106.57
2022-12-22T22:32:26.630Z,108.85
2022-12-22T22:35:29.555Z,104.07
2022-12-22T22:38:32.068Z,108.77
2022-12-22T22:41:40.967Z,101.00
2022-12-22T22:44:45.550Z,104.68
2022-12-22T22:47:48.073Z,100.20
2022-12-22T22:50:52.224Z,91.70
2022-12-22T22:53:54.677Z,94.90
2022-12-22T22:56:57.185Z,100.57
2022-12-22T22:59:59.963Z,98.97
2022-12-22T23:03:02.644Z,113.75
2022-12-22T23:06:08.363Z,104.13
2022-12-22T23:09:10.886Z,98.00
2022-12-22T23:12:13.658Z,103.13
2022-12-22T23:15:16.606Z,107.25
2022-12-22T23:18:19.039Z,97.45
2022-12-22T23:21:23.450Z,94.67
2022-12-22T23:24:25.943Z,93.73
2022-12-22T23:27:28.544Z,97.28
2022-12-22T23:30:31.214Z,101.28
2022-12-22T23:33:33.726Z,106.57
2022-12-22T23:36:36.159Z,106.88
2022-12-22T23:39:38.942Z,108.78
2022-12-22T23:42:41.503Z,102.10
2022-12-22T23:45:44.049Z,112.73
2022-12-22T23:48:51.634Z,117.57
2022-12-22T23:51:54.238Z,110.97
2022-12-22T23:54:56.781Z,102.33
2022-12-22T23:57:59.271Z,97.00
